Baudette International Airport
KBDE : now visible

Airfield :











YOU CAN JOIN US ON...

 
LOGIN :

Register | Disclaimer

   EN    FR    IT 

 









Legend :    VFR   Marginal VFR   IFR   Intensive IFR   Very Intensive IFR
Visi :
Ceiling :
>= 8 km
>= 3000ft
5 to 8 km
1000 to 3000 ft
1500m to 5 km
500 to 1000 ft
800 to 1500m
200 to 500 ft
< 800m
< 200 ft
Symbols :   Thunderstorms  Fog  Heavy snow  Heavy precipitations  Wind > 20 kt






- Airport Elevation : 1086 ft


KBDE - Baudette International

CURRENT METAR :
  • 261753Z AUTO 32009KT 7SM -RA OVC006 16/15 A2978 RMK AO2 CIG 004V010 SLP086 P0008 60031 T01610150 10167 20156 57011

EXPIRED METARs :
  • 261733Z AUTO 32008KT 6SM -RA BR OVC006 16/16 A2978 RMK AO2 P0005 T01610156
  • 261717Z AUTO 34007KT 7SM -RA BKN005 OVC015 17/16 A2979 RMK AO2 P0002 T01670156
  • 261653Z AUTO 33007KT 5SM RA BR SCT006 BKN011 OVC019 17/16 A2979 RMK AO2 SLP090 P0009 T01670156
  • 261634Z AUTO 31008KT 5SM -RA BR SCT005 OVC011 17/16 A2981 RMK AO2 P0006 T01670156
  • 261616Z AUTO 32006KT 4SM RA BR BKN005 BKN013 OVC022 17/16 A2980 RMK AO2 CIG 003V008 P0003 T01670156
  • 261604Z AUTO 32005KT 5SM -RA BR BKN004 BKN013 OVC021 17/16 A2981 RMK AO2 P0001 T01670156
  • 261553Z AUTO 34005KT 6SM -RA BR SCT004 BKN013 OVC021 17/16 A2980 RMK AO2 SLP093 P0004 T01670156

TAF N/A
KZMP FIR / North America



MET'MAP, your aeronautical weather chart ! - Copyright ORBIFLY December 2007 - Disclaimer

ORBIFLY MET'MAP TEAM :

Programming & Development : Alexandra Zaïnal
Concept & original design : Baudouin d'Aumeries
Assistance for programming : Marc-Olivier Méhu
Technical & hardware support : Manuel Goepfert

Contact : metmap@orbifly.com




SOURCES & CREDITS :

   NOAA       Earth
Advisory